createdAt,value
2019-01-12T00:01:58.775Z,19.80
2019-01-12T00:04:27.440Z,20.17
2019-01-12T00:06:56.305Z,19.97
2019-01-12T00:09:24.999Z,23.00
2019-01-12T00:11:53.500Z,24.83
2019-01-12T00:14:22.165Z,24.97
2019-01-12T00:16:50.822Z,26.40
2019-01-12T00:19:19.655Z,28.73
2019-01-12T00:21:48.213Z,29.63
2019-01-12T00:24:16.604Z,31.17
2019-01-12T00:26:45.410Z,31.17
2019-01-12T00:29:15.011Z,32.13
2019-01-12T00:31:43.632Z,32.13
2019-01-12T00:34:12.236Z,32.63
2019-01-12T00:36:40.896Z,33.60
2019-01-12T00:39:09.363Z,33.23
2019-01-12T00:41:37.909Z,33.40
2019-01-12T00:44:06.553Z,32.10
2019-01-12T00:46:35.152Z,32.30
2019-01-12T00:49:03.848Z,31.60
2019-01-12T00:51:32.378Z,31.40
2019-01-12T00:54:00.904Z,32.07
2019-01-12T00:56:29.564Z,30.47
2019-01-12T00:58:57.919Z,30.67
2019-01-12T01:01:26.610Z,28.40
2019-01-12T01:03:55.707Z,29.67
2019-01-12T01:06:24.398Z,30.03
2019-01-12T01:08:53.018Z,30.20
2019-01-12T01:11:21.753Z,28.60
2019-01-12T01:13:50.310Z,27.80
2019-01-12T01:16:18.972Z,27.20
2019-01-12T01:18:47.511Z,28.03
2019-01-12T01:21:16.230Z,28.63
2019-01-12T01:23:44.891Z,27.67
2019-01-12T01:26:13.697Z,28.63
2019-01-12T01:28:42.435Z,28.37
2019-01-12T01:31:11.022Z,28.20
2019-01-12T01:33:39.652Z,28.30
2019-01-12T01:36:08.247Z,26.97
2019-01-12T01:38:36.901Z,28.63
2019-01-12T01:41:05.674Z,29.17
2019-01-12T01:43:34.089Z,29.20
2019-01-12T01:46:02.583Z,29.37
2019-01-12T01:48:31.432Z,31.57
2019-01-12T01:51:00.098Z,28.70
2019-01-12T01:53:28.627Z,28.77
2019-01-12T01:55:57.341Z,27.70
2019-01-12T01:58:26.017Z,28.37
2019-01-12T02:00:54.910Z,27.23
2019-01-12T02:03:23.767Z,28.27
2019-01-12T02:05:52.426Z,28.00
2019-01-12T02:08:21.080Z,28.53
2019-01-12T02:10:49.763Z,28.70
2019-01-12T02:13:19.472Z,28.60
2019-01-12T02:15:48.148Z,27.80
2019-01-12T02:18:16.443Z,28.63
2019-01-12T02:20:45.189Z,28.13
2019-01-12T02:23:13.911Z,27.77
2019-01-12T02:25:42.498Z,26.77
2019-01-12T02:28:11.336Z,27.07
2019-01-12T02:30:41.000Z,27.07
2019-01-12T02:33:09.669Z,26.83
2019-01-12T02:35:38.472Z,28.30
2019-01-12T02:38:07.257Z,29.07
2019-01-12T02:40:35.778Z,27.40
2019-01-12T02:43:04.484Z,27.40
2019-01-12T02:45:33.844Z,27.33
2019-01-12T02:48:02.627Z,29.00
2019-01-12T02:50:31.039Z,28.53
2019-01-12T02:52:59.743Z,27.50
2019-01-12T02:55:28.406Z,26.97
2019-01-12T02:57:56.762Z,26.80
2019-01-12T03:00:25.516Z,27.53
2019-01-12T03:02:54.205Z,26.23
2019-01-12T03:05:22.916Z,27.03
2019-01-12T03:07:51.289Z,27.03
2019-01-12T03:10:19.976Z,27.20
2019-01-12T03:12:48.596Z,28.00
2019-01-12T03:15:18.018Z,27.33
2019-01-12T03:17:46.465Z,27.07
2019-01-12T03:20:16.449Z,25.03
2019-01-12T03:22:45.235Z,26.33
2019-01-12T03:25:18.628Z,27.93
2019-01-12T03:27:44.147Z,26.07
2019-01-12T03:30:16.746Z,26.87
2019-01-12T03:32:45.585Z,26.37
2019-01-12T03:35:14.487Z,27.43
2019-01-12T03:37:43.222Z,26.97
2019-01-12T03:40:15.679Z,25.07
2019-01-12T03:42:44.377Z,24.93
2019-01-12T03:45:14.139Z,24.37
2019-01-12T03:47:42.921Z,24.00
2019-01-12T03:50:11.707Z,25.43
2019-01-12T03:52:40.266Z,25.07
2019-01-12T03:55:10.349Z,24.70
2019-01-12T03:57:39.969Z,25.53
2019-01-12T04:00:22.274Z,25.70
2019-01-12T04:02:51.013Z,24.17
2019-01-12T04:05:19.724Z,23.83
2019-01-12T04:07:48.529Z,22.03
2019-01-12T04:10:17.147Z,21.87
2019-01-12T04:12:45.968Z,21.20
2019-01-12T04:15:14.801Z,22.37
2019-01-12T04:17:44.387Z,22.43
2019-01-12T04:20:14.621Z,23.00
2019-01-12T04:22:43.211Z,24.00
2019-01-12T04:25:11.630Z,22.27
2019-01-12T04:27:40.211Z,23.70
2019-01-12T04:30:10.281Z,22.47
2019-01-12T04:32:39.913Z,24.83
2019-01-12T04:35:08.785Z,23.30
2019-01-12T04:37:37.571Z,25.23
2019-01-12T04:40:07.965Z,25.23
2019-01-12T04:42:36.385Z,24.77
2019-01-12T04:45:06.239Z,24.50
2019-01-12T04:47:35.072Z,24.60
2019-01-12T04:50:03.924Z,24.43
2019-01-12T04:52:32.471Z,24.30
2019-01-12T04:55:01.210Z,24.77
2019-01-12T04:57:29.794Z,25.80
2019-01-12T04:59:58.433Z,24.53
2019-01-12T05:02:27.870Z,24.57
2019-01-12T05:04:56.497Z,25.97
2019-01-12T05:07:25.180Z,24.50
2019-01-12T05:09:54.997Z,25.17
2019-01-12T05:12:23.706Z,24.97
2019-01-12T05:14:52.277Z,25.17
2019-01-12T05:17:20.922Z,25.87
2019-01-12T05:19:49.576Z,30.43
2019-01-12T05:22:18.257Z,33.57
2019-01-12T05:24:46.627Z,33.17
2019-01-12T05:27:15.143Z,31.93
2019-01-12T05:29:43.961Z,30.70
2019-01-12T05:32:12.656Z,30.37
2019-01-12T05:34:41.427Z,29.20
2019-01-12T05:37:10.054Z,31.77
2019-01-12T05:39:38.789Z,33.07
2019-01-12T05:42:07.091Z,32.27
2019-01-12T05:44:35.848Z,33.83
2019-01-12T05:47:04.565Z,32.63
2019-01-12T05:49:33.310Z,30.13
2019-01-12T05:52:01.890Z,30.93
2019-01-12T05:54:30.335Z,30.97
2019-01-12T05:56:58.760Z,29.87
2019-01-12T05:59:27.153Z,27.67
2019-01-12T06:01:55.634Z,27.43
2019-01-12T06:04:24.191Z,26.83
2019-01-12T06:06:52.823Z,27.70
2019-01-12T06:09:21.405Z,27.03
2019-01-12T06:11:49.763Z,26.70
2019-01-12T06:14:18.319Z,25.67
2019-01-12T06:16:46.737Z,23.67
2019-01-12T06:19:15.438Z,26.60
2019-01-12T06:21:43.690Z,26.87
2019-01-12T06:24:12.248Z,26.97
2019-01-12T06:26:40.928Z,28.17
2019-01-12T06:29:09.692Z,29.20
2019-01-12T06:31:38.221Z,27.10
2019-01-12T06:34:07.657Z,27.60
2019-01-12T06:36:36.049Z,26.50
2019-01-12T06:39:07.054Z,25.10
2019-01-12T06:41:35.413Z,46.50
2019-01-12T06:44:03.935Z,52.60
2019-01-12T06:46:32.743Z,29.70
2019-01-12T06:49:01.380Z,31.77
2019-01-12T06:51:30.112Z,30.17
2019-01-12T06:53:58.913Z,29.53
2019-01-12T06:56:27.144Z,31.00
2019-01-12T06:58:55.622Z,31.00
2019-01-12T07:01:24.187Z,29.80
2019-01-12T07:03:52.690Z,27.70
2019-01-12T07:06:21.088Z,27.67
2019-01-12T07:08:49.556Z,29.17
2019-01-12T07:11:18.137Z,29.77
2019-01-12T07:13:46.462Z,29.63
2019-01-12T07:16:15.339Z,30.87
2019-01-12T07:18:43.820Z,31.63
2019-01-12T07:21:12.469Z,30.23
2019-01-12T07:23:41.233Z,29.87
2019-01-12T07:26:09.849Z,30.33
2019-01-12T07:28:38.657Z,30.90
2019-01-12T07:31:06.979Z,30.93
2019-01-12T07:33:35.389Z,30.93
2019-01-12T07:36:04.122Z,33.33
2019-01-12T07:38:32.651Z,33.23
2019-01-12T07:41:02.520Z,33.00
2019-01-12T07:43:31.152Z,31.73
2019-01-12T07:45:59.757Z,30.53
2019-01-12T07:48:28.071Z,31.33
2019-01-12T07:50:56.388Z,32.10
2019-01-12T07:53:24.998Z,33.63
2019-01-12T07:55:53.573Z,34.80
2019-01-12T07:58:22.288Z,32.43
2019-01-12T08:00:50.988Z,32.37
2019-01-12T08:03:19.283Z,36.87
2019-01-12T08:05:47.707Z,34.87
2019-01-12T08:08:16.375Z,36.97
2019-01-12T08:10:45.276Z,36.17
2019-01-12T08:13:13.918Z,37.13
2019-01-12T08:15:42.567Z,36.30
2019-01-12T08:18:11.320Z,38.60
2019-01-12T08:20:40.089Z,35.17
2019-01-12T08:23:08.899Z,32.80
2019-01-12T08:25:37.362Z,30.10
2019-01-12T08:28:06.001Z,27.07
2019-01-12T08:30:34.757Z,24.83
2019-01-12T08:33:03.476Z,24.63
2019-01-12T08:35:33.149Z,22.90
2019-01-12T08:38:01.690Z,21.90
2019-01-12T08:40:30.255Z,20.97
2019-01-12T08:42:58.885Z,23.90
2019-01-12T08:45:27.584Z,25.80
2019-01-12T08:47:56.373Z,24.13
2019-01-12T08:50:25.132Z,24.23
2019-01-12T08:52:53.871Z,22.83
2019-01-12T08:55:22.588Z,29.60
2019-01-12T08:57:51.311Z,28.10
2019-01-12T09:00:21.715Z,26.10
2019-01-12T09:02:50.393Z,25.55
2019-01-12T09:05:19.120Z,28.00
2019-01-12T09:07:47.914Z,24.43
2019-01-12T09:10:19.687Z,23.17
2019-01-12T09:12:48.757Z,22.67
2019-01-12T09:15:17.046Z,23.70
2019-01-12T09:17:45.801Z,24.00
2019-01-12T09:20:15.031Z,24.20
2019-01-12T09:22:44.165Z,21.97
2019-01-12T09:25:13.925Z,21.07
2019-01-12T09:27:42.574Z,20.97
2019-01-12T09:30:14.611Z,19.60
2019-01-12T09:32:43.251Z,20.67
2019-01-12T09:35:12.836Z,21.43
2019-01-12T09:37:41.594Z,22.40
2019-01-12T09:40:12.927Z,20.60
2019-01-12T09:42:41.747Z,21.73
2019-01-12T09:45:10.980Z,22.57
2019-01-12T09:47:39.749Z,22.47
2019-01-12T09:50:12.178Z,23.07
2019-01-12T09:52:40.857Z,21.67
2019-01-12T09:55:09.631Z,21.77
2019-01-12T09:57:38.415Z,22.07
2019-01-12T10:00:10.250Z,22.17
2019-01-12T10:02:38.928Z,22.63
2019-01-12T10:05:07.653Z,23.30
2019-01-12T10:07:36.423Z,22.23
2019-01-12T10:10:07.852Z,20.93
2019-01-12T10:12:36.516Z,22.37
2019-01-12T10:15:05.829Z,21.60
2019-01-12T10:17:34.477Z,22.70
2019-01-12T10:20:04.034Z,21.70
2019-01-12T10:22:32.374Z,21.03
2019-01-12T10:25:00.688Z,20.50
2019-01-12T10:27:29.424Z,22.63
2019-01-12T10:29:59.143Z,23.57
2019-01-12T10:32:27.742Z,21.37
2019-01-12T10:34:56.555Z,24.43
2019-01-12T10:37:25.964Z,24.27
2019-01-12T10:39:54.391Z,22.97
2019-01-12T10:42:23.029Z,24.00
2019-01-12T10:44:51.733Z,23.53
2019-01-12T10:47:20.542Z,23.03
2019-01-12T10:49:49.293Z,23.63
2019-01-12T10:52:17.944Z,23.23
2019-01-12T10:54:46.684Z,23.00
2019-01-12T10:57:15.495Z,23.03
2019-01-12T10:59:44.240Z,23.90
2019-01-12T11:02:13.087Z,23.43
2019-01-12T11:04:41.648Z,24.13
2019-01-12T11:07:18.471Z,23.93
2019-01-12T11:09:47.089Z,24.33
2019-01-12T11:12:15.847Z,23.10
2019-01-12T11:14:44.331Z,22.43
2019-01-12T11:17:13.025Z,26.93
2019-01-12T11:19:41.772Z,22.83
2019-01-12T11:22:10.464Z,21.40
2019-01-12T11:24:39.153Z,23.97
2019-01-12T11:27:12.195Z,22.57
2019-01-12T11:29:38.502Z,23.43
2019-01-12T11:32:07.177Z,22.67
2019-01-12T11:34:35.836Z,22.43
2019-01-12T11:37:04.625Z,21.70
2019-01-12T11:39:33.347Z,22.27
2019-01-12T11:42:02.149Z,20.23
2019-01-12T11:44:30.724Z,22.27
2019-01-12T11:46:59.400Z,22.87
2019-01-12T11:49:28.072Z,21.63
2019-01-12T11:51:56.773Z,22.03
2019-01-12T11:54:25.583Z,22.57
2019-01-12T11:56:54.286Z,23.50
2019-01-12T11:59:23.204Z,22.57
2019-01-12T12:01:51.863Z,21.10
2019-01-12T12:04:20.444Z,22.60
2019-01-12T12:06:49.180Z,22.10
2019-01-12T12:09:17.874Z,24.87
2019-01-12T12:11:46.408Z,24.63
2019-01-12T12:14:15.081Z,25.20
2019-01-12T12:16:43.647Z,25.43
2019-01-12T12:19:12.351Z,24.03
2019-01-12T12:21:41.157Z,32.50
2019-01-12T12:24:09.801Z,26.07
2019-01-12T12:26:38.442Z,25.47
2019-01-12T12:29:07.173Z,23.53
2019-01-12T12:31:35.776Z,23.10
2019-01-12T12:34:04.571Z,21.60
2019-01-12T12:36:33.200Z,21.07
2019-01-12T12:39:04.665Z,21.70
2019-01-12T12:41:33.202Z,22.77
2019-01-12T12:44:01.963Z,21.50
2019-01-12T12:46:30.656Z,21.53
2019-01-12T12:48:59.496Z,24.23
2019-01-12T12:51:28.186Z,23.60
2019-01-12T12:53:56.532Z,23.43
2019-01-12T12:56:25.323Z,23.97
2019-01-12T12:58:54.048Z,22.80
2019-01-12T13:01:22.865Z,25.43
2019-01-12T13:03:51.679Z,24.87
2019-01-12T13:06:20.312Z,24.37
2019-01-12T13:08:50.008Z,25.07
2019-01-12T13:11:18.789Z,24.90
2019-01-12T13:13:47.431Z,22.83
2019-01-12T13:16:17.155Z,25.23
2019-01-12T13:18:45.847Z,26.90
2019-01-12T13:21:14.523Z,26.73
2019-01-12T13:23:43.297Z,27.30
2019-01-12T13:26:11.938Z,26.17
2019-01-12T13:28:41.813Z,26.03
2019-01-12T13:31:10.504Z,24.83
2019-01-12T13:33:39.292Z,25.13
2019-01-12T13:36:09.183Z,25.13
2019-01-12T13:38:37.830Z,25.63
2019-01-12T13:41:06.639Z,27.37
2019-01-12T13:43:35.315Z,26.30
2019-01-12T13:46:04.017Z,26.73
2019-01-12T13:48:32.789Z,26.70
2019-01-12T13:51:01.418Z,24.93
2019-01-12T13:53:30.204Z,24.20
2019-01-12T13:55:58.847Z,27.90
2019-01-12T13:58:27.469Z,27.10
2019-01-12T14:00:56.240Z,27.87
2019-01-12T14:03:24.833Z,27.93
2019-01-12T14:05:53.552Z,25.77
2019-01-12T14:08:22.173Z,26.23
2019-01-12T14:10:50.745Z,25.80
2019-01-12T14:13:19.413Z,26.67
2019-01-12T14:15:48.164Z,26.13
2019-01-12T14:18:22.632Z,25.43
2019-01-12T14:20:47.509Z,24.90
2019-01-12T14:23:16.225Z,24.60
2019-01-12T14:25:44.936Z,25.43
2019-01-12T14:28:13.706Z,25.33
2019-01-12T14:30:42.431Z,25.17
2019-01-12T14:33:11.343Z,24.57
2019-01-12T14:35:40.212Z,26.03
2019-01-12T14:38:08.944Z,26.87
2019-01-12T14:40:38.723Z,25.37
2019-01-12T14:43:07.325Z,26.03
2019-01-12T14:45:36.264Z,25.83
2019-01-12T14:48:05.447Z,25.80
2019-01-12T14:50:34.079Z,26.17
2019-01-12T14:53:02.837Z,26.17
2019-01-12T14:55:31.551Z,25.57
2019-01-12T14:58:02.569Z,28.00
2019-01-12T15:00:30.665Z,25.87
2019-01-12T15:02:59.259Z,27.30
2019-01-12T15:05:32.298Z,27.40
2019-01-12T15:08:01.005Z,25.53
2019-01-12T15:10:29.871Z,27.37
2019-01-12T15:12:58.644Z,27.37
2019-01-12T15:15:27.269Z,27.23
2019-01-12T15:17:56.091Z,29.17
2019-01-12T15:20:26.891Z,28.77
2019-01-12T15:22:55.731Z,37.87
2019-01-12T15:25:24.592Z,40.20
2019-01-12T15:27:53.444Z,34.87
2019-01-12T15:30:24.429Z,34.77
2019-01-12T15:32:53.117Z,34.37
2019-01-12T15:35:22.364Z,34.23
2019-01-12T15:37:50.999Z,33.57
2019-01-12T15:40:20.553Z,35.27
2019-01-12T15:42:49.232Z,40.20
2019-01-12T15:45:20.504Z,37.73
2019-01-12T15:47:49.401Z,40.73
2019-01-12T15:50:19.888Z,42.90
2019-01-12T15:52:48.698Z,41.83
2019-01-12T15:55:17.018Z,43.97
2019-01-12T15:57:45.667Z,45.70
2019-01-12T16:00:17.034Z,43.43
2019-01-12T16:02:45.875Z,43.50
2019-01-12T16:05:14.649Z,44.27
2019-01-12T16:07:43.290Z,41.63
2019-01-12T16:10:12.294Z,41.80
2019-01-12T16:12:40.970Z,49.43
2019-01-12T16:15:12.845Z,50.97
2019-01-12T16:17:41.648Z,55.27
2019-01-12T16:20:36.687Z,55.17
2019-01-12T16:23:05.538Z,58.10
2019-01-12T16:25:34.082Z,55.47
2019-01-12T16:28:02.868Z,54.23
2019-01-12T16:30:31.515Z,52.73
2019-01-12T16:33:00.398Z,101.80
2019-01-12T16:35:29.130Z,82.20
2019-01-12T16:37:57.869Z,83.93
2019-01-12T16:40:26.535Z,92.83
2019-01-12T16:42:55.392Z,86.27
2019-01-12T16:45:24.003Z,85.20
2019-01-12T16:47:52.787Z,78.17
2019-01-12T16:50:21.467Z,74.73
2019-01-12T16:52:50.170Z,75.63
2019-01-12T16:55:19.227Z,66.63
2019-01-12T16:57:47.871Z,82.87
2019-01-12T17:00:35.899Z,78.20
2019-01-12T17:03:04.541Z,77.10
2019-01-12T17:05:33.319Z,71.50
2019-01-12T17:08:01.945Z,75.57
2019-01-12T17:10:32.099Z,75.93
2019-01-12T17:13:01.066Z,83.43
2019-01-12T17:15:34.671Z,79.07
2019-01-12T17:18:00.162Z,84.77
2019-01-12T17:20:29.255Z,80.83
2019-01-12T17:22:58.801Z,86.13
2019-01-12T17:25:27.296Z,86.37
2019-01-12T17:27:56.838Z,80.73
2019-01-12T17:30:25.562Z,73.70
2019-01-12T17:32:54.317Z,71.20
2019-01-12T17:35:22.941Z,66.27
2019-01-12T17:37:51.724Z,61.23
2019-01-12T17:40:20.382Z,64.37
2019-01-12T17:42:50.091Z,64.13
2019-01-12T17:45:20.792Z,64.80
2019-01-12T17:47:49.413Z,93.93
2019-01-12T17:50:19.895Z,71.47
2019-01-12T17:52:48.559Z,76.60
2019-01-12T17:55:19.036Z,76.97
2019-01-12T17:57:47.889Z,75.33
2019-01-12T18:00:24.094Z,72.27
2019-01-12T18:02:52.908Z,72.50
2019-01-12T18:05:21.544Z,80.73
2019-01-12T18:07:50.342Z,75.03
2019-01-12T18:10:18.899Z,72.93
2019-01-12T18:12:47.574Z,69.57
2019-01-12T18:15:16.315Z,62.70
2019-01-12T18:17:45.029Z,65.80
2019-01-12T18:20:14.284Z,71.80
2019-01-12T18:22:43.048Z,75.93
2019-01-12T18:25:12.020Z,71.10
2019-01-12T18:27:41.317Z,63.70
2019-01-12T18:30:16.253Z,65.93
2019-01-12T18:32:45.043Z,71.00
2019-01-12T18:35:13.585Z,64.53
2019-01-12T18:37:42.204Z,64.27
2019-01-12T18:40:13.645Z,62.47
2019-01-12T18:42:42.470Z,66.50
2019-01-12T18:45:12.926Z,74.53
2019-01-12T18:47:41.604Z,66.37
2019-01-12T18:50:13.682Z,65.87
2019-01-12T18:52:42.343Z,64.17
2019-01-12T18:55:11.002Z,65.83
2019-01-12T18:57:40.692Z,64.00
2019-01-12T19:00:18.399Z,67.63
2019-01-12T19:02:44.176Z,70.20
2019-01-12T19:05:12.911Z,73.57
2019-01-12T19:07:41.752Z,75.67
2019-01-12T19:10:10.560Z,83.50
2019-01-12T19:12:39.280Z,75.63
2019-01-12T19:15:10.879Z,76.20
2019-01-12T19:17:39.495Z,76.23
2019-01-12T19:20:08.136Z,69.87
2019-01-12T19:22:36.608Z,77.17
2019-01-12T19:25:05.672Z,71.03
2019-01-12T19:27:34.440Z,69.10
2019-01-12T19:30:03.394Z,77.10
2019-01-12T19:32:31.647Z,81.03
2019-01-12T19:35:00.346Z,75.03
2019-01-12T19:37:28.900Z,72.53
2019-01-12T19:39:57.464Z,69.03
2019-01-12T19:42:26.063Z,68.60
2019-01-12T19:44:55.000Z,66.77
2019-01-12T19:47:23.573Z,61.47
2019-01-12T19:49:52.236Z,59.37
2019-01-12T19:52:21.020Z,57.37
2019-01-12T19:54:49.647Z,74.87
2019-01-12T19:57:18.392Z,70.80
2019-01-12T19:59:46.887Z,69.73
2019-01-12T20:02:15.722Z,70.37
2019-01-12T20:04:44.508Z,64.33
2019-01-12T20:07:13.277Z,59.97
2019-01-12T20:09:41.640Z,61.10
2019-01-12T20:12:10.431Z,55.73
2019-01-12T20:14:39.054Z,64.40
2019-01-12T20:17:07.502Z,63.57
2019-01-12T20:19:35.817Z,65.13
2019-01-12T20:22:04.648Z,55.17
2019-01-12T20:24:33.216Z,57.23
2019-01-12T20:27:01.921Z,56.27
2019-01-12T20:29:30.540Z,66.93
2019-01-12T20:32:12.730Z,60.23
2019-01-12T20:34:48.145Z,62.63
2019-01-12T20:38:19.661Z,60.30
2019-01-12T20:41:10.045Z,62.87
2019-01-12T20:44:29.592Z,58.80
2019-01-12T20:47:36.475Z,58.37
2019-01-12T20:50:26.206Z,57.07
2019-01-12T20:53:29.964Z,56.57
2019-01-12T20:56:19.656Z,53.30
2019-01-12T20:59:00.891Z,51.50
2019-01-12T21:01:48.447Z,50.70
2019-01-12T21:05:10.827Z,50.13
2019-01-12T21:08:07.422Z,50.57
2019-01-12T21:11:18.159Z,50.70
2019-01-12T21:14:08.040Z,52.67
2019-01-12T21:16:43.491Z,51.43
2019-01-12T21:19:12.204Z,42.97
2019-01-12T21:21:40.932Z,45.77
2019-01-12T21:24:09.568Z,47.07
2019-01-12T21:26:37.889Z,45.10
2019-01-12T21:29:06.363Z,48.93
2019-01-12T21:31:35.021Z,56.37
2019-01-12T21:34:03.864Z,43.47
2019-01-12T21:36:32.194Z,44.97
2019-01-12T21:39:00.829Z,47.17
2019-01-12T21:41:29.471Z,43.23
2019-01-12T21:43:57.867Z,42.10
2019-01-12T21:46:26.453Z,41.67
2019-01-12T21:48:55.280Z,41.27
2019-01-12T21:51:23.979Z,40.20
2019-01-12T21:53:52.732Z,38.97
2019-01-12T21:56:21.573Z,40.30
2019-01-12T21:58:50.249Z,44.67
2019-01-12T22:01:18.949Z,41.93
2019-01-12T22:03:47.634Z,42.47
2019-01-12T22:06:16.251Z,46.60
2019-01-12T22:08:44.956Z,46.57
2019-01-12T22:11:13.660Z,43.63
2019-01-12T22:13:42.244Z,44.83
2019-01-12T22:16:10.956Z,40.27
2019-01-12T22:18:39.636Z,40.10
2019-01-12T22:21:08.255Z,39.00
2019-01-12T22:23:37.027Z,42.83
2019-01-12T22:26:05.520Z,40.60
2019-01-12T22:28:33.934Z,39.40
2019-01-12T22:31:02.791Z,42.57
2019-01-12T22:33:31.521Z,46.43
2019-01-12T22:36:00.129Z,41.53
2019-01-12T22:38:28.676Z,40.13
2019-01-12T22:40:56.998Z,40.90
2019-01-12T22:43:25.697Z,39.83
2019-01-12T22:45:55.014Z,38.90
2019-01-12T22:48:23.741Z,39.57
2019-01-12T22:50:52.119Z,38.67
2019-01-12T22:53:20.748Z,40.67
2019-01-12T22:55:49.547Z,43.87
2019-01-12T22:58:17.865Z,45.70
2019-01-12T23:01:02.511Z,43.30
2019-01-12T23:03:31.136Z,40.60
2019-01-12T23:05:59.777Z,39.20
2019-01-12T23:08:28.357Z,37.83
2019-01-12T23:10:58.793Z,37.97
2019-01-12T23:13:27.531Z,39.33
2019-01-12T23:15:55.743Z,40.73
2019-01-12T23:18:24.506Z,37.90
2019-01-12T23:20:53.220Z,38.57
2019-01-12T23:23:22.058Z,44.70
2019-01-12T23:25:50.843Z,40.27
2019-01-12T23:28:19.483Z,40.97
2019-01-12T23:30:48.131Z,40.37
2019-01-12T23:33:18.909Z,42.87
2019-01-12T23:35:47.739Z,41.23
2019-01-12T23:38:16.542Z,42.90
2019-01-12T23:40:45.182Z,39.60
2019-01-12T23:43:13.857Z,41.53
2019-01-12T23:45:42.418Z,43.47
2019-01-12T23:48:11.113Z,41.87
2019-01-12T23:50:39.859Z,40.83
2019-01-12T23:53:08.554Z,41.60
2019-01-12T23:55:37.250Z,40.33
2019-01-12T23:58:05.929Z,39.57
